createdAt,value
2023-04-08T00:02:14.287Z,70.17
2023-04-08T00:04:41.442Z,69.79
2023-04-08T00:07:08.153Z,70.23
2023-04-08T00:09:34.802Z,70.21
2023-04-08T00:12:02.078Z,70.71
2023-04-08T00:14:28.673Z,70.64
2023-04-08T00:16:55.914Z,70.49
2023-04-08T00:19:22.731Z,70.57
2023-04-08T00:21:49.504Z,70.78
2023-04-08T00:24:16.738Z,71.26
2023-04-08T00:26:43.275Z,71.63
2023-04-08T00:29:10.076Z,71.97
2023-04-08T00:31:37.287Z,71.24
2023-04-08T00:34:04.925Z,71.35
2023-04-08T00:36:31.563Z,71.86
2023-04-08T00:38:58.227Z,71.90
2023-04-08T00:41:24.845Z,72.14
2023-04-08T00:43:52.577Z,72.30
2023-04-08T00:46:19.460Z,72.17
2023-04-08T00:48:46.315Z,71.95
2023-04-08T00:51:13.239Z,72.40
2023-04-08T00:53:40.082Z,72.38
2023-04-08T00:56:06.608Z,71.81
2023-04-08T00:58:33.360Z,72.31
2023-04-08T01:01:06.312Z,73.62
2023-04-08T01:03:54.716Z,74.13
2023-04-08T01:06:42.458Z,72.90
2023-04-08T01:09:11.675Z,73.49
2023-04-08T01:11:43.854Z,73.32
2023-04-08T01:14:16.460Z,72.92
2023-04-08T01:16:45.325Z,73.04
2023-04-08T01:19:37.888Z,73.78
2023-04-08T01:22:37.372Z,75.30
2023-04-08T01:25:14.978Z,74.17
2023-04-08T01:27:43.354Z,73.86
2023-04-08T01:30:11.003Z,73.17
2023-04-08T01:32:39.866Z,73.96
2023-04-08T01:35:08.068Z,73.35
2023-04-08T01:37:35.937Z,73.69
2023-04-08T01:40:03.364Z,73.88
2023-04-08T01:42:31.636Z,74.17
2023-04-08T01:44:59.549Z,73.94
2023-04-08T01:47:26.856Z,73.91
2023-04-08T01:49:54.034Z,73.94
2023-04-08T01:52:22.593Z,74.46
2023-04-08T01:54:49.675Z,74.44
2023-04-08T01:57:23.335Z,74.86
2023-04-08T01:59:53.165Z,75.07
2023-04-08T02:02:22.837Z,75.65
2023-04-08T02:04:50.043Z,75.79
2023-04-08T02:07:18.015Z,74.92
2023-04-08T02:09:44.684Z,75.23
2023-04-08T02:12:11.916Z,74.36
2023-04-08T02:14:38.939Z,74.92
2023-04-08T02:17:24.320Z,76.50
2023-04-08T02:20:03.811Z,75.76
2023-04-08T02:22:48.186Z,75.80
2023-04-08T02:25:16.958Z,75.31
2023-04-08T02:27:46.337Z,75.32
2023-04-08T02:30:13.995Z,75.29
2023-04-08T02:32:42.676Z,75.81
2023-04-08T02:35:12.165Z,76.01
2023-04-08T02:37:39.270Z,75.87
2023-04-08T02:40:26.455Z,76.91
2023-04-08T02:42:54.134Z,75.83
2023-04-08T02:45:21.589Z,75.64
2023-04-08T02:47:48.753Z,76.06
2023-04-08T02:50:15.690Z,76.08
2023-04-08T02:52:43.954Z,75.79
2023-04-08T02:55:10.795Z,75.34
2023-04-08T02:57:39.503Z,76.33
2023-04-08T03:00:07.427Z,75.94
2023-04-08T03:02:34.109Z,75.86
2023-04-08T03:05:01.300Z,75.79
2023-04-08T03:07:28.044Z,75.96
2023-04-08T03:09:55.676Z,75.92
2023-04-08T03:12:22.792Z,76.31
2023-04-08T03:14:50.739Z,76.54
2023-04-08T03:17:17.549Z,77.14
2023-04-08T03:19:44.151Z,76.54
2023-04-08T03:22:10.768Z,76.47
2023-04-08T03:24:37.843Z,76.32
2023-04-08T03:27:04.489Z,76.04
2023-04-08T03:29:31.210Z,76.60
2023-04-08T03:31:58.079Z,76.14
2023-04-08T03:34:24.863Z,76.60
2023-04-08T03:36:51.452Z,76.93
2023-04-08T03:39:18.039Z,76.75
2023-04-08T03:41:44.652Z,76.27
2023-04-08T03:44:11.265Z,76.98
2023-04-08T03:46:38.410Z,76.39
2023-04-08T03:49:05.071Z,76.49
2023-04-08T03:51:32.132Z,76.95
2023-04-08T03:53:59.748Z,76.64
2023-04-08T03:56:26.550Z,77.18
2023-04-08T03:58:53.281Z,76.83
2023-04-08T04:01:19.925Z,76.92
2023-04-08T04:03:46.662Z,76.45
2023-04-08T04:06:13.339Z,76.78
2023-04-08T04:08:40.027Z,76.75
2023-04-08T04:11:06.741Z,76.82
2023-04-08T04:13:33.326Z,76.45
2023-04-08T04:15:59.948Z,76.97
2023-04-08T04:18:26.652Z,77.37
2023-04-08T04:20:53.331Z,77.88
2023-04-08T04:23:19.988Z,77.51
2023-04-08T04:25:46.802Z,77.64
2023-04-08T04:28:13.839Z,77.56
2023-04-08T04:30:40.649Z,77.31
2023-04-08T04:33:07.953Z,77.03
2023-04-08T04:35:34.836Z,77.21
2023-04-08T04:38:01.783Z,77.48
2023-04-08T04:40:28.524Z,77.34
2023-04-08T04:42:55.885Z,77.22
2023-04-08T04:45:22.802Z,77.72
2023-04-08T04:47:49.551Z,77.22
2023-04-08T04:50:16.190Z,78.02
2023-04-08T04:52:42.839Z,77.64
2023-04-08T04:55:09.932Z,77.38
2023-04-08T04:57:36.568Z,77.72
2023-04-08T05:00:05.341Z,77.90
2023-04-08T05:02:32.558Z,77.72
2023-04-08T05:04:59.581Z,77.86
2023-04-08T05:07:26.317Z,77.87
2023-04-08T05:09:54.614Z,77.83
2023-04-08T05:12:21.336Z,77.96
2023-04-08T05:14:47.954Z,77.96
2023-04-08T05:17:14.563Z,77.73
2023-04-08T05:19:41.068Z,78.12
2023-04-08T05:22:07.770Z,78.39
2023-04-08T05:24:34.254Z,78.20
2023-04-08T05:27:01.480Z,77.83
2023-04-08T05:29:28.337Z,78.27
2023-04-08T05:31:56.717Z,78.53
2023-04-08T05:34:23.473Z,78.16
2023-04-08T05:36:52.977Z,78.34
2023-04-08T05:39:20.536Z,77.99
2023-04-08T05:41:49.918Z,78.26
2023-04-08T05:44:16.627Z,78.17
2023-04-08T05:46:43.397Z,78.65
2023-04-08T05:49:10.117Z,78.52
2023-04-08T05:51:36.692Z,78.69
2023-04-08T05:54:03.460Z,78.70
2023-04-08T05:56:32.888Z,78.25
2023-04-08T05:58:59.893Z,78.34
2023-04-08T06:01:26.977Z,78.52
2023-04-08T06:03:57.063Z,78.68
2023-04-08T06:06:26.306Z,79.15
2023-04-08T06:08:53.122Z,78.91
2023-04-08T06:11:22.803Z,78.95
2023-04-08T06:13:49.465Z,78.92
2023-04-08T06:16:20.324Z,79.18
2023-04-08T06:18:50.474Z,79.31
2023-04-08T06:21:17.431Z,79.21
2023-04-08T06:23:44.210Z,79.77
2023-04-08T06:26:13.639Z,80.07
2023-04-08T06:28:42.483Z,79.32
2023-04-08T06:31:10.599Z,80.13
2023-04-08T06:33:40.429Z,80.35
2023-04-08T06:36:08.596Z,80.30
2023-04-08T06:38:35.380Z,79.92
2023-04-08T06:41:03.677Z,80.27
2023-04-08T06:43:31.036Z,80.15
2023-04-08T06:45:58.128Z,80.36
2023-04-08T06:48:33.171Z,80.61
2023-04-08T06:51:01.504Z,80.44
2023-04-08T06:53:32.924Z,80.32
2023-04-08T06:56:03.040Z,79.97
2023-04-08T06:58:30.107Z,80.53
2023-04-08T07:00:57.373Z,80.57
2023-04-08T07:03:26.393Z,80.60
2023-04-08T07:06:06.690Z,80.87
2023-04-08T07:08:33.279Z,81.36
2023-04-08T07:11:00.012Z,81.79
2023-04-08T07:13:26.841Z,81.05
2023-04-08T07:15:53.529Z,81.72
2023-04-08T07:18:21.437Z,81.19
2023-04-08T07:20:53.987Z,81.38
2023-04-08T07:23:21.405Z,81.25
2023-04-08T07:25:50.714Z,80.91
2023-04-08T07:28:17.606Z,81.71
2023-04-08T07:30:44.189Z,81.22
2023-04-08T07:33:10.887Z,81.29
2023-04-08T07:35:38.064Z,81.13
2023-04-08T07:38:16.923Z,81.16
2023-04-08T07:40:46.067Z,80.69
2023-04-08T07:43:12.991Z,81.07
2023-04-08T07:45:42.564Z,81.03
2023-04-08T07:48:10.979Z,80.51
2023-04-08T07:51:09.455Z,81.16
2023-04-08T07:53:37.467Z,80.42
2023-04-08T07:56:12.118Z,80.18
2023-04-08T07:58:50.082Z,80.59
2023-04-08T08:01:22.046Z,80.15
2023-04-08T08:03:52.807Z,79.50
2023-04-08T08:06:27.236Z,79.76
2023-04-08T08:08:54.636Z,79.77
2023-04-08T08:11:46.386Z,79.46
2023-04-08T08:16:04.626Z,78.92
2023-04-08T08:17:31.835Z,79.46
2023-04-08T08:20:12.758Z,78.88
2023-04-08T08:22:47.187Z,78.12
2023-04-08T08:25:45.364Z,78.54
2023-04-08T08:29:36.671Z,78.91
2023-04-08T08:32:18.055Z,77.16
2023-04-08T08:38:51.375Z,76.06
2023-04-08T08:41:56.990Z,76.34
2023-04-08T09:02:32.638Z,68.20
2023-04-08T09:05:24.724Z,71.40
2023-04-08T09:08:06.507Z,71.69
2023-04-08T09:11:12.603Z,70.89
2023-04-08T09:14:10.349Z,71.08
2023-04-08T09:16:43.080Z,67.51
2023-04-08T09:19:36.486Z,66.42
2023-04-08T09:22:27.602Z,67.96
2023-04-08T09:25:25.012Z,69.40
2023-04-08T09:28:31.051Z,65.07
2023-04-08T09:32:06.661Z,67.60
2023-04-08T10:10:15.995Z,57.89
2023-04-08T10:20:39.913Z,54.43
2023-04-08T11:13:27.451Z,50.91
2023-04-08T11:17:24.912Z,45.25
2023-04-08T11:32:21.449Z,48.06
2023-04-08T11:35:10.203Z,45.81
2023-04-08T11:38:41.060Z,47.42
2023-04-08T11:46:01.458Z,45.61
2023-04-08T12:25:03.363Z,40.93
2023-04-08T12:27:40.638Z,39.74
2023-04-08T12:58:49.234Z,39.91
2023-04-08T13:01:16.583Z,38.57
2023-04-08T14:26:02.775Z,35.98
2023-04-08T14:33:33.760Z,36.30
2023-04-08T14:37:31.598Z,35.00
2023-04-08T14:40:15.027Z,35.63
2023-04-08T18:02:15.383Z,42.17
2023-04-08T19:30:25.021Z,50.56
2023-04-08T20:42:47.473Z,54.43
2023-04-08T21:22:35.192Z,56.78
2023-04-08T21:25:11.844Z,57.76
2023-04-08T21:27:48.513Z,58.13
2023-04-08T21:30:25.965Z,57.58
2023-04-08T21:32:55.926Z,58.92
2023-04-08T21:35:27.525Z,58.08
2023-04-08T21:42:20.094Z,60.16
2023-04-08T21:45:03.014Z,59.26
2023-04-08T21:47:44.009Z,60.29
2023-04-08T21:50:49.234Z,61.95
2023-04-08T21:53:20.416Z,60.38
2023-04-08T21:56:53.829Z,61.35
2023-04-08T21:59:45.484Z,61.00
2023-04-08T22:02:40.406Z,60.55
2023-04-08T22:06:31.123Z,62.00
2023-04-08T22:09:41.693Z,63.32
2023-04-08T22:12:57.124Z,61.32
2023-04-08T22:27:24.169Z,61.77
2023-04-08T22:29:56.356Z,61.69
2023-04-08T22:32:26.443Z,62.76
2023-04-08T22:34:56.773Z,62.31
2023-04-08T22:37:31.311Z,62.58
2023-04-08T22:40:23.505Z,63.71
2023-04-08T22:42:50.481Z,63.39
2023-04-08T22:45:17.259Z,63.29
2023-04-08T22:47:56.811Z,64.16
2023-04-08T22:50:24.101Z,63.33
2023-04-08T22:52:51.886Z,63.81
2023-04-08T22:55:26.912Z,63.67
2023-04-08T22:57:57.995Z,64.70
2023-04-08T23:00:25.280Z,64.56
2023-04-08T23:02:53.641Z,63.88
2023-04-08T23:05:26.759Z,65.13
2023-04-08T23:07:58.927Z,64.25
2023-04-08T23:10:25.912Z,65.36
2023-04-08T23:12:52.805Z,65.12
2023-04-08T23:15:19.892Z,64.74
2023-04-08T23:17:46.715Z,65.51
2023-04-08T23:20:13.550Z,65.66
2023-04-08T23:22:42.482Z,66.34
2023-04-08T23:25:09.907Z,65.50
2023-04-08T23:27:37.053Z,66.32
2023-04-08T23:30:19.239Z,66.52
2023-04-08T23:35:41.961Z,65.83
2023-04-08T23:38:10.734Z,66.35
2023-04-08T23:40:37.340Z,66.31
2023-04-08T23:43:04.135Z,66.23
2023-04-08T23:45:36.470Z,66.42
2023-04-08T23:48:08.858Z,66.62
2023-04-08T23:50:41.133Z,66.75
2023-04-08T23:53:09.985Z,66.95
2023-04-08T23:55:39.452Z,66.33
2023-04-08T23:58:06.120Z,66.98
